Flight Track Log - Related Links

Times and Time Zones

All times are in EDT time to prevent confusion due to time zone crossing. See the LYM1725 flight status page for this flight to view local times or setup timezone preferences in your user account.

Time Position Orientation Groundspeed Altitude Reporting Facility
EDT Latitude Longitude Course Direction KTS MPH feet Rate Location/Type
Wed 10:29:15 AM 43.0525 -108.4731 346° North 198 228 8,900  Level Salt Lake Center
Wed 10:30:00 AM 43.4196 -108.5939 342° North  Level FlightAware Approximate
Wed 10:30:16 AM 43.0600 -108.4283 77° East 175 201 11,000  Level Salt Lake Center
Wed 10:31:00 AM 43.4815 -108.6160 346° North  Level FlightAware Approximate
Wed 10:31:18 AM 43.0333 -108.3717 123° Southeast 186 214 12,700  Level Salt Lake Center
Wed 10:32:00 AM 43.5438 -108.6368 346° North  Level FlightAware Approximate
Wed 10:32:19 AM 43.0317 -108.4183 267° West 198 228 14,800  Level Salt Lake Center
Wed 10:33:00 AM 43.6061 -108.6576 346° North  Level FlightAware Approximate
Wed 10:33:20 AM 43.0761 -108.4506 332° Northwest 189 217 16,300  Level Salt Lake Center
Wed 10:34:00 AM 43.6683 -108.6783 346° North  Level FlightAware Approximate
Wed 10:34:22 AM 43.1467 -108.4836 341° North 234 269 16,000  Level Salt Lake Center
Wed 10:35:23 AM 43.2183 -108.5089 346° North 269 310 16,100 49 Climbing Salt Lake Center
Wed 10:36:25 AM 43.3044 -108.5375 346° North 280 322 16,100  Level Salt Lake Center
Wed 10:37:26 AM 43.3778 -108.5653 345° North 283 326 16,100 -49 Level Salt Lake Center
Wed 10:38:28 AM 43.4531 -108.5903 346° North 287 330 16,000  Descending Salt Lake Center
Wed 10:39:29 AM 43.5417 -108.6139 349° North 290 334 16,100  Climbing Salt Lake Center
Wed 10:40:31 AM 43.6203 -108.6242 355° North 293 337 16,000 49 Descending Salt Lake Center
Wed 10:41:32 AM 43.7069 -108.6517 347° North 289 333 16,200  Climbing Salt Lake Center
Wed 10:42:34 AM 43.7792 -108.6886 340° North 285 328 16,000 -49 Descending Salt Lake Center
Wed 10:43:35 AM 43.8531 -108.7206 343° North 288 331 16,100 -49 Climbing Salt Lake Center
Wed 10:44:37 AM 43.9408 -108.7547 344° North 290 334 15,900 -537 Descending Salt Lake Center
Wed 10:45:38 AM 44.0194 -108.7764 349° North 295 339 15,000 -885 Descending Salt Lake Center
Wed 10:47:00 AM 44.0961 -108.8484 344° North  Level FlightAware Approximate
Wed 10:54:00 AM 44.5167 -109.0167 345° North  Level FlightAware Approximate
Wed 10:55:00 AM 44.5202 -109.0238 345° North  Level Estimated
Wed 10:56:00 AM 44.5167 -109.0167 345° North  Level FlightAware Approximate
Wed 10:57:00 AM 44.5202 -109.0238 345° North  Level Estimated
Wed 10:58:00 AM 44.5167 -109.0167 345° North  Level FlightAware Approximate
Wed 10:59:00 AM 44.5202 -109.0238 345° North  Level Estimated
Wed 11:00:00 AM 44.5167 -109.0167 345° North  Level FlightAware Approximate
Wed 11:01:00 AM 44.5202 -109.0238 345° North  Level Estimated
Wed 11:02:00 AM 44.5167 -109.0167 345° North  Level FlightAware Approximate
Wed 11:03:00 AM 44.5202 -109.0238 345° North  Level Estimated

Login

Don't have an account? Register now (free) for customized features, flight alerts, and more!